Alief, Texas
Current Conditions -  °F | °C
As of 6:01 AM on Friday 21 Nov 2014 (Local Time) from KSGR Reporting Station
Overcast Overcast  
Wind Chill: 65°   Ceiling: 4000
Heat Index: 65°   Visibility: 10mi
Dew Point: 63°   Wind: 10mph
Humidity: 93%   Direction: 130°SE
Pressure: 30.09"   Gusts: NA
Location:  29.71°N, 95.6°W
Report Text: KSGR 211201Z 13009KT 10SM SCT008 BKN040 OVC050 18/17 A3009 RMK AO2 T01830172
Loading
Personal Weather Stations






























Interactive Weather Map New forecast layout! Learn more

10-Day Weather Forecast

Advertisements
Track Severe Weather on mobile